Longville, MN

9:53 AM CST on February 24, 2017 (GMT -0600)
Longville Municipal

Weather History for KXVG - January, 2014

Change the Weather History Date:

Friday, January 24, 2014

  Actual Average (KPWC) Record (KPWC)
Temperature  
Mean Temperature 16 °F -  
Max Temperature 26 °F 18 °F 35 °F (2006)
Min Temperature 5 °F 1 °F -25 °F (2008)
Degree Days  
Heating Degree Days 50    
Moisture  
Dew Point 14 °F    
Average Humidity 80    
Maximum Humidity 100    
Minimum Humidity 44    
Precipitation  
Precipitation 0.00 in - - ()
Sea Level Pressure  
Sea Level Pressure 29.56 in    
Wind  
Wind Speed 9 mph (West)    
Max Wind Speed 15 mph    
Max Gust Speed 28 mph    
Visibility 7 miles    
Events Snow    
Averages and records for this station are not official NWS values.
T = Trace of Precipitation, MM = Missing Value Source: NWS Daily Summary

Daily Weather History Graph

Daily Weather History Graph

Search for Another Location

Airport or City:

Trip Planner

Search our weather history database for the weather conditions in past years. The results will help you decide how hot, cold, wet, or windy it might be!

Date:

Astronomy

Jan. 24, 2014 Rise Set
Actual Time 7:50 AM CST 5:07 PM CST
Civil Twilight 7:17 AM CST 5:41 PM CST
Nautical Twilight 6:40 AM CST 6:18 PM CST
Astronomical Twilight 6:04 AM CST 6:54 PM CST
Moon 1:13 AM CST 11:30 AM CST
Length of Visible Light 10h 23m
Length of Day
9h 17m
Last Quarter, 44% of the Moon is Illuminated
Jan 24
Last Quarter
Jan 30
New
Feb 6
First Quarter
Feb 14
Full
Feb 22
Last Quarter

Hourly Weather History & Observations

Time (CST) Temp. Windchill Dew Point Humidity Pressure Visibility Wind Dir Wind Speed Gust Speed Precip Events Conditions
12:16 AM 5.0 °F -10.8 °F -4.0 °F 66% 29.83 in 10.0 mi South 11.5 mph 18.4 mph N/A   Overcast
12:36 AM 6.8 °F -7.8 °F -2.2 °F 67% 29.81 in 10.0 mi SSW 10.4 mph 18.4 mph N/A   Overcast
12:56 AM 6.8 °F -6.9 °F -2.2 °F 67% 29.80 in 10.0 mi SSW 9.2 mph - N/A   Overcast
1:16 AM 6.8 °F -5.9 °F -2.2 °F 67% 29.78 in 10.0 mi SSW 8.1 mph - N/A   Overcast
1:36 AM 8.6 °F -5.5 °F -0.4 °F 67% 29.75 in 3.0 mi South 10.4 mph - N/A Snow Light Snow
1:56 AM 8.6 °F -3.7 °F 1.4 °F 73% 29.74 in 1.2 mi SSW 8.1 mph - N/A Snow Snow
2:16 AM 8.6 °F -1.3 °F 5.0 °F 85% 29.73 in 1.2 mi South 5.8 mph - N/A Snow Light Snow
2:36 AM 8.6 °F -2.6 °F 6.8 °F 92% 29.71 in 2.0 mi SSW 6.9 mph - N/A Snow Light Snow
2:56 AM 10.4 °F -0.4 °F 6.8 °F 85% 29.70 in 3.0 mi South 6.9 mph - N/A Snow Light Snow
3:16 AM 10.4 °F -0.4 °F 8.6 °F 92% 29.69 in 3.0 mi SW 6.9 mph - N/A Snow Light Snow
3:36 AM 12.2 °F 0.7 °F 10.4 °F 92% 29.67 in 2.0 mi SW 8.1 mph - N/A Snow Light Snow
3:56 AM 14.0 °F 2.0 °F 10.4 °F 86% 29.66 in 7.0 mi SW 9.2 mph - N/A   Overcast
4:16 AM 14.0 °F 3.9 °F 10.4 °F 86% 29.65 in 10.0 mi SW 6.9 mph - N/A   Overcast
4:36 AM 15.8 °F 7.2 °F 12.2 °F 86% 29.65 in 10.0 mi SW 5.8 mph - N/A   Overcast
4:56 AM 17.6 °F 8.2 °F 12.2 °F 79% 29.64 in 10.0 mi WSW 6.9 mph - N/A   Overcast
5:16 AM 17.6 °F 8.2 °F 14.0 °F 86% 29.64 in 10.0 mi WSW 6.9 mph - N/A   Overcast
5:36 AM 17.6 °F 8.2 °F 14.0 °F 86% 29.64 in 10.0 mi WSW 6.9 mph - N/A   Overcast
5:56 AM 17.6 °F 8.2 °F 14.0 °F 86% 29.64 in 10.0 mi West 6.9 mph - N/A   Overcast
6:16 AM 17.6 °F 8.2 °F 15.8 °F 93% 29.62 in 10.0 mi WSW 6.9 mph - N/A   Overcast
6:36 AM 17.6 °F 8.2 °F 15.8 °F 93% 29.61 in 10.0 mi SW 6.9 mph - N/A   Overcast
6:56 AM 19.4 °F 10.4 °F 15.8 °F 86% 29.61 in 10.0 mi WSW 6.9 mph - N/A   Overcast
7:16 AM 19.4 °F 11.5 °F 15.8 °F 86% 29.61 in 10.0 mi WSW 5.8 mph - N/A   Overcast
7:36 AM 19.4 °F 11.5 °F 15.8 °F 86% 29.59 in 10.0 mi WSW 5.8 mph - N/A   Overcast
7:56 AM 19.4 °F 10.4 °F 15.8 °F 86% 29.58 in 10.0 mi SW 6.9 mph - N/A   Overcast
8:16 AM 19.4 °F 11.5 °F 17.6 °F 93% 29.58 in 10.0 mi WSW 5.8 mph - N/A   Overcast
8:36 AM 19.4 °F 14.3 °F 17.6 °F 93% 29.58 in 10.0 mi WSW 3.5 mph - N/A   Overcast
8:56 AM 21.2 °F 14.9 °F 17.6 °F 86% 29.57 in 10.0 mi WSW 4.6 mph - N/A   Overcast
9:16 AM 21.2 °F 13.6 °F 19.4 °F 93% 29.57 in 10.0 mi West 5.8 mph - N/A   Overcast
9:36 AM 23.0 °F 13.9 °F 19.4 °F 86% 29.56 in 10.0 mi West 8.1 mph - N/A   Overcast
9:56 AM 24.8 °F 16.1 °F 21.2 °F 86% 29.56 in 7.0 mi West 8.1 mph - N/A   Overcast
10:16 AM 24.8 °F 16.1 °F 21.2 °F 86% 29.55 in 3.0 mi West 8.1 mph - N/A   Overcast
10:36 AM 24.8 °F 16.9 °F 21.2 °F 86% 29.55 in 3.0 mi WSW 6.9 mph - N/A   Overcast
10:56 AM 24.8 °F 16.1 °F 23.0 °F 93% 29.53 in 1.8 mi WSW 8.1 mph - N/A   Overcast
11:16 AM 24.8 °F 17.9 °F 23.0 °F 93% 29.51 in 1.8 mi WSW 5.8 mph - N/A   Overcast
11:36 AM 24.8 °F 16.9 °F 23.0 °F 93% 29.51 in 2.0 mi West 6.9 mph - N/A   Overcast
11:56 AM 24.8 °F 16.1 °F 24.8 °F 100% 29.49 in 3.0 mi West 8.1 mph - N/A   Overcast
12:16 PM 24.8 °F 14.6 °F 23.0 °F 93% 29.47 in 4.0 mi WSW 10.4 mph - N/A   Overcast
12:36 PM 24.8 °F 16.1 °F 23.0 °F 93% 29.48 in 4.0 mi West 8.1 mph - N/A   Overcast
12:56 PM 24.8 °F 16.9 °F 23.0 °F 93% 29.47 in 3.0 mi West 6.9 mph - N/A   Overcast
1:16 PM 24.8 °F 12.9 °F 23.0 °F 93% 29.46 in 3.0 mi West 13.8 mph 18.4 mph N/A Snow Light Snow
1:36 PM 24.8 °F 14.6 °F 23.0 °F 93% 29.46 in 2.0 mi West 10.4 mph 16.1 mph N/A Snow Light Snow
1:56 PM 24.8 °F 15.3 °F 23.0 °F 93% 29.44 in 1.5 mi West 9.2 mph - N/A Snow Light Snow
2:16 PM 24.8 °F 17.9 °F 21.2 °F 86% 29.43 in 1.0 mi West 5.8 mph - N/A Snow Light Snow
2:36 PM 24.8 °F 16.1 °F 23.0 °F 93% 29.41 in 2.0 mi West 8.1 mph - N/A Snow Light Snow
2:56 PM 26.6 °F 17.5 °F 21.2 °F 80% 29.41 in 3.0 mi West 9.2 mph - N/A Snow Light Snow
3:16 PM 26.6 °F 18.2 °F 23.0 °F 86% 29.41 in 4.0 mi West 8.1 mph - N/A Snow Light Snow
3:36 PM 26.6 °F 17.5 °F 23.0 °F 86% 29.41 in 5.0 mi West 9.2 mph - N/A   Overcast
3:56 PM 26.6 °F 18.2 °F 23.0 °F 86% 29.41 in 10.0 mi West 8.1 mph - N/A   Overcast
4:16 PM 26.6 °F 17.5 °F 23.0 °F 86% 29.41 in 10.0 mi West 9.2 mph - N/A   Overcast
4:36 PM 26.6 °F 15.7 °F 21.2 °F 80% 29.41 in 10.0 mi West 12.7 mph 18.4 mph N/A   Overcast
4:56 PM 26.6 °F 15.2 °F 23.0 °F 86% 29.42 in 10.0 mi WNW 13.8 mph 21.9 mph N/A   Overcast
5:16 PM 26.6 °F 15.7 °F 23.0 °F 86% 29.43 in 10.0 mi WNW 12.7 mph 18.4 mph N/A   Overcast
5:36 PM 26.6 °F 15.2 °F 23.0 °F 86% 29.43 in 10.0 mi WNW 13.8 mph 24.2 mph N/A   Overcast
5:56 PM 26.6 °F 15.7 °F 23.0 °F 86% 29.43 in 10.0 mi WNW 12.7 mph 18.4 mph N/A   Overcast
6:16 PM 26.6 °F 20.0 °F 23.0 °F 86% 29.44 in 10.0 mi NW 5.8 mph 21.9 mph N/A Snow Light Snow
6:36 PM 26.6 °F 15.7 °F 23.0 °F 86% 29.44 in 10.0 mi WNW 12.7 mph 17.3 mph N/A   Mostly Cloudy
6:56 PM 26.6 °F 14.7 °F 21.2 °F 80% 29.44 in 10.0 mi WNW 15.0 mph 25.3 mph N/A   Mostly Cloudy
7:16 PM 26.6 °F 16.2 °F 19.4 °F 74% 29.45 in 10.0 mi NW 11.5 mph 21.9 mph N/A   Overcast
7:36 PM 24.8 °F 14.6 °F 19.4 °F 80% 29.47 in 7.0 mi NNW 10.4 mph 25.3 mph N/A Snow Light Snow
7:56 PM 23.0 °F 10.6 °F 15.8 °F 74% 29.49 in 10.0 mi NNW 13.8 mph 21.9 mph N/A   Mostly Cloudy
8:16 PM 21.2 °F 8.9 °F 12.2 °F 68% 29.50 in 10.0 mi NW 12.7 mph 21.9 mph N/A   Scattered Clouds
8:36 PM 17.6 °F 3.2 °F 8.6 °F 68% 29.51 in 10.0 mi NW 15.0 mph 21.9 mph N/A   Clear
8:56 PM 17.6 °F 4.3 °F 6.8 °F 63% 29.52 in 7.0 mi WNW 12.7 mph 25.3 mph N/A   Clear
9:16 PM 15.8 °F 4.2 °F 3.2 °F 58% 29.53 in 10.0 mi NW 9.2 mph 19.6 mph N/A   Clear
9:36 PM 14.0 °F 1.2 °F -0.4 °F 53% 29.54 in 10.0 mi NW 10.4 mph 23.0 mph N/A   Clear
9:56 PM 12.2 °F -2.5 °F -2.2 °F 53% 29.56 in 10.0 mi WNW 12.7 mph 24.2 mph N/A   Clear
10:16 PM 10.4 °F -4.8 °F -5.8 °F 48% 29.57 in 10.0 mi NW 12.7 mph 23.0 mph N/A   Clear
10:36 PM 10.4 °F -4.8 °F -7.6 °F 44% 29.58 in 10.0 mi NW 12.7 mph 23.0 mph N/A   Clear
10:56 PM 8.6 °F -5.5 °F -7.6 °F 48% 29.59 in 10.0 mi NW 10.4 mph 20.7 mph N/A   Clear
11:16 PM 6.8 °F -9.3 °F -7.6 °F 52% 29.60 in 10.0 mi NW 12.7 mph 26.5 mph N/A   Clear
11:36 PM 6.8 °F -8.6 °F -7.6 °F 52% 29.62 in 10.0 mi NW 11.5 mph 20.7 mph N/A   Clear
11:56 PM 5.0 °F -13.0 °F -7.6 °F 56% 29.62 in 10.0 mi NW 15.0 mph 27.6 mph N/A   Clear